Time;durP1;ratioP1;P1;durP2;ratioP2;P2;SDS_P1;SDS_P2;PMS_P1;PMS_P2;Temp;Humidity;BMP_temperature;BMP_pressure;BME280_temperature;BME280_humidity;BME280_pressure;Samples;Min_cycle;Max_cycle;Signal;HPM_P1;HPM_P2
2022/04/15 05:49:20;;;;;;;1.52;1.52;;;11.40;99.90;;;;;;5081722;23;20709;-71
2022/04/15 05:51:47;;;;;;;1.27;1.27;;;11.50;99.90;;;;;;4936037;29;20244;-71
2022/04/15 05:54:14;;;;;;;1.55;1.45;;;11.50;99.90;;;;;;4935883;29;20240;-71
2022/04/15 05:56:41;;;;;;;1.27;1.27;;;11.60;99.90;;;;;;4935569;29;20292;-71
2022/04/15 05:59:08;;;;;;;1.67;1.67;;;11.60;99.90;;;;;;4920410;29;20794;-71
2022/04/15 06:01:34;;;;;;;2.22;2.15;;;11.60;99.90;;;;;;4949946;23;20695;-70
2022/04/15 06:04:01;;;;;;;1.80;1.80;;;11.60;99.90;;;;;;4935739;29;20296;-71
2022/04/15 06:06:30;;;;;;;1.67;1.67;;;11.60;99.90;;;;;;4935876;29;20232;-70
2022/04/15 06:08:57;;;;;;;2.00;1.90;;;11.60;99.90;;;;;;4935893;29;20292;-69
2022/04/15 06:11:25;;;;;;;3.45;3.20;;;11.60;99.90;;;;;;4925910;29;20756;-68
2022/04/15 06:13:52;;;;;;;3.65;3.45;;;11.60;99.90;;;;;;4916616;29;20620;-68
2022/04/15 06:16:20;;;;;;;4.00;3.70;;;11.70;99.90;;;;;;4916930;29;20205;-69
2022/04/15 06:18:48;;;;;;;3.17;2.88;;;11.80;99.90;;;;;;4916798;29;20209;-70
2022/04/15 06:21:15;;;;;;;3.03;2.88;;;11.80;99.90;;;;;;4916632;29;20344;-69
2022/04/15 06:23:43;;;;;;;3.25;3.05;;;11.90;99.90;;;;;;4916869;29;20216;-70
2022/04/15 06:26:10;;;;;;;2.70;2.50;;;11.90;99.90;;;;;;4916809;29;20335;-69
2022/04/15 06:28:37;;;;;;;3.33;3.08;;;12.00;99.90;;;;;;4916662;29;20248;-70
2022/04/15 06:31:04;;;;;;;3.70;3.42;;;12.00;99.90;;;;;;4916659;29;20268;-70
2022/04/15 06:33:31;;;;;;;3.97;3.53;;;12.10;99.90;;;;;;4916440;29;20293;-69
2022/04/15 06:35:59;;;;;;;4.22;3.92;;;12.10;99.90;;;;;;4918086;29;20689;-70
2022/04/15 06:38:26;;;;;;;3.83;3.60;;;12.10;99.90;;;;;;4920715;29;20630;-70
2022/04/15 06:40:55;;;;;;;3.90;3.58;;;12.10;99.90;;;;;;4923609;29;20756;-69
2022/04/15 06:43:23;;;;;;;3.60;3.40;;;12.20;99.90;;;;;;4923009;29;20297;-70
2022/04/15 06:45:50;;;;;;;3.75;3.45;;;12.30;99.90;;;;;;4923413;29;20296;-70
2022/04/15 06:48:17;;;;;;;3.05;2.95;;;12.30;99.90;;;;;;4923140;29;20209;-70
2022/04/15 06:50:45;;;;;;;3.38;3.13;;;12.40;99.90;;;;;;4923380;29;20711;-70
2022/04/15 06:53:13;;;;;;;2.65;2.55;;;12.50;99.90;;;;;;4923200;29;20242;-68
2022/04/15 06:55:40;;;;;;;2.60;2.50;;;12.50;99.90;;;;;;4923738;29;20207;-69
2022/04/15 06:58:11;;;;;;;5.78;4.93;;;12.60;99.90;;;;;;4924165;29;20216;-65
2022/04/15 07:00:39;;;;;;;4.97;4.55;;;12.60;99.90;;;;;;4922624;29;20260;-65
2022/04/15 07:03:06;;;;;;;4.75;4.22;;;12.50;99.90;;;;;;4923078;29;20252;-64
2022/04/15 07:05:33;;;;;;;5.45;4.60;;;12.50;99.90;;;;;;4923498;29;20228;-65
2022/04/15 07:08:00;;;;;;;6.63;4.85;;;12.50;99.90;;;;;;4922844;29;20568;-64
2022/04/15 07:10:28;;;;;;;6.97;5.55;;;12.50;99.90;;;;;;4922742;29;20241;-64
2022/04/15 07:12:56;;;;;;;6.10;5.50;;;12.50;99.90;;;;;;4922510;29;20273;-64
2022/04/15 07:15:25;;;;;;;5.38;4.88;;;12.50;99.90;;;;;;4923082;29;20245;-64
2022/04/15 07:17:52;;;;;;;5.22;4.18;;;12.60;99.90;;;;;;4924111;29;20284;-65
2022/04/15 07:20:19;;;;;;;4.57;4.18;;;12.70;99.90;;;;;;4920794;29;20209;-65
2022/04/15 07:22:47;;;;;;;4.78;4.32;;;12.90;99.90;;;;;;4919067;29;20316;-65
2022/04/15 07:25:14;;;;;;;4.57;4.10;;;13.20;99.90;;;;;;4919140;29;20202;-64
2022/04/15 07:27:40;;;;;;;4.28;3.97;;;13.50;99.90;;;;;;4919260;29;20236;-65
2022/04/15 07:30:09;;;;;;;3.95;3.75;;;14.00;99.90;;;;;;4919321;29;20288;-64
2022/04/15 07:32:37;;;;;;;3.67;3.30;;;14.80;99.90;;;;;;4918893;29;20237;-64
2022/04/15 07:35:05;;;;;;;4.13;3.83;;;15.60;99.90;;;;;;4918945;29;20287;-64
2022/04/15 07:37:32;;;;;;;3.22;3.03;;;16.20;99.90;;;;;;4918890;29;20308;-64
2022/04/15 07:39:58;;;;;;;3.53;3.28;;;17.00;99.90;;;;;;4918808;29;20297;-64
2022/04/15 07:42:25;;;;;;;3.63;3.40;;;17.40;99.90;;;;;;4918623;29;20320;-64
2022/04/15 07:44:52;;;;;;;2.88;2.45;;;17.50;99.90;;;;;;4918755;29;20410;-64
2022/04/15 07:47:19;;;;;;;2.75;2.55;;;17.50;99.90;;;;;;4918363;29;20292;-64
2022/04/15 07:49:50;;;;;;;2.47;2.38;;;17.40;99.90;;;;;;4918084;29;20280;-64
2022/04/15 07:52:17;;;;;;;3.92;2.90;;;17.60;99.90;;;;;;4919044;29;20220;-65
2022/04/15 07:54:44;;;;;;;2.30;2.20;;;17.80;99.90;;;;;;4919590;29;20232;-63
2022/04/15 07:57:11;;;;;;;2.20;2.10;;;17.90;99.90;;;;;;4918567;29;20291;-64
2022/04/15 07:59:38;;;;;;;2.42;2.33;;;18.30;99.90;;;;;;4918644;29;20244;-63
2022/04/15 08:02:06;;;;;;;2.63;2.50;;;18.50;94.80;;;;;;4917801;29;20324;-64
2022/04/15 08:04:34;;;;;;;3.13;2.05;;;18.60;91.80;;;;;;4918484;29;20213;-63
2022/04/15 08:07:03;;;;;;;2.25;2.15;;;18.60;89.20;;;;;;4918302;29;20209;-64
2022/04/15 08:09:32;;;;;;;2.05;1.95;;;18.50;90.20;;;;;;4918544;29;20208;-64
2022/04/15 08:11:59;;;;;;;2.45;1.75;;;18.50;92.10;;;;;;4917999;29;20324;-64
2022/04/15 08:14:26;;;;;;;1.50;1.50;;;18.70;91.80;;;;;;4917939;29;20292;-64
2022/04/15 08:16:53;;;;;;;2.40;2.22;;;19.00;84.30;;;;;;4917892;29;20296;-64
2022/04/15 08:19:20;;;;;;;3.65;3.20;;;19.10;78.50;;;;;;4918129;29;20272;-65
2022/04/15 08:21:47;;;;;;;4.25;2.83;;;18.90;73.00;;;;;;4917892;29;20311;-65
2022/04/15 08:24:15;;;;;;;2.22;2.13;;;18.70;74.90;;;;;;4918071;29;20236;-65
2022/04/15 08:26:42;;;;;;;3.22;2.47;;;18.80;75.80;;;;;;4918012;29;20293;-65
2022/04/15 08:29:09;;;;;;;2.55;2.38;;;18.60;70.70;;;;;;4917743;29;20208;-64
2022/04/15 08:31:36;;;;;;;1.73;1.73;;;18.60;76.60;;;;;;4917540;29;20312;-65
2022/04/15 08:34:03;;;;;;;3.08;1.70;;;18.50;71.00;;;;;;4917812;29;20304;-65
2022/04/15 08:36:30;;;;;;;1.52;1.50;;;18.40;76.30;;;;;;4918183;29;20201;-65
2022/04/15 08:38:58;;;;;;;2.10;2.00;;;18.40;71.70;;;;;;4917246;29;20695;-64
2022/04/15 08:41:30;;;;;;;2.45;2.00;;;18.30;69.00;;;;;;4917623;29;20284;-65
2022/04/15 08:43:57;;;;;;;1.70;1.60;;;18.10;68.00;;;;;;4917479;29;20300;-63
2022/04/15 08:46:25;;;;;;;4.15;2.22;;;17.70;69.80;;;;;;4917822;29;20291;-64
2022/04/15 08:48:53;;;;;;;4.95;2.50;;;17.60;73.10;;;;;;4918015;29;20307;-65
2022/04/15 08:51:20;;;;;;;5.32;2.53;;;17.50;74.50;;;;;;4917762;29;20773;-64
2022/04/15 08:53:52;;;;;;;2.10;1.85;;;17.40;72.20;;;;;;4918540;29;20255;-64
2022/04/15 08:56:21;;;;;;;2.20;2.00;;;17.20;71.50;;;;;;4916872;29;20660;-64
2022/04/15 08:58:50;;;;;;;2.05;1.90;;;17.10;73.30;;;;;;4917379;29;20689;-64
2022/04/15 09:01:17;;;;;;;2.38;2.15;;;17.00;74.40;;;;;;4917702;29;20315;-65
2022/04/15 09:03:44;;;;;;;2.40;2.20;;;16.90;78.70;;;;;;4917321;29;20232;-64
2022/04/15 09:06:14;;;;;;;2.10;2.00;;;17.10;75.30;;;;;;4918128;29;20216;-65
2022/04/15 09:08:59;;;;;;;2.67;2.20;;;17.20;76.50;;;;;;4918052;29;20194;-65
2022/04/15 09:11:31;;;;;;;2.22;1.98;;;17.00;76.90;;;;;;4917515;29;20228;-65
2022/04/15 09:14:02;;;;;;;1.90;1.80;;;17.30;78.30;;;;;;4917454;29;20544;-65
2022/04/15 09:16:30;;;;;;;4.28;2.28;;;17.50;71.90;;;;;;4917168;29;20193;-65
2022/04/15 09:18:58;;;;;;;1.92;1.80;;;17.60;68.10;;;;;;4917326;29;20583;-65
2022/04/15 09:21:25;;;;;;;2.25;1.73;;;17.60;73.10;;;;;;4917397;29;20225;-65
2022/04/15 09:23:55;;;;;;;3.70;2.10;;;17.50;66.50;;;;;;4918201;29;20229;-65
2022/04/15 09:26:22;;;;;;;1.92;1.80;;;17.50;65.20;;;;;;4920518;29;20211;-65
2022/04/15 09:28:50;;;;;;;1.30;1.30;;;17.50;67.20;;;;;;4922982;29;20205;-64
2022/04/15 09:31:19;;;;;;;1.50;1.50;;;17.70;70.80;;;;;;4920954;29;20221;-64
2022/04/15 09:33:57;;;;;;;1.35;1.30;;;17.90;67.00;;;;;;4919090;29;20205;-64
2022/04/15 09:36:28;;;;;;;3.30;1.33;;;18.10;65.40;;;;;;4917255;29;20203;-64
2022/04/15 09:39:01;;;;;;;1.50;1.40;;;18.30;66.50;;;;;;4916716;29;20296;-64
2022/04/15 09:41:29;;;;;;;1.58;1.52;;;18.40;60.20;;;;;;4917216;29;20229;-63
2022/04/15 09:43:58;;;;;;;1.23;1.23;;;18.40;58.80;;;;;;4917105;29;20259;-64
2022/04/15 09:46:27;;;;;;;1.35;1.25;;;18.40;60.70;;;;;;4916973;29;20211;-68
2022/04/15 09:49:01;;;;;;;1.92;1.63;;;18.40;59.50;;;;;;4917091;29;20212;-67
2022/04/15 09:51:29;;;;;;;1.88;1.77;;;18.30;59.00;;;;;;4917089;29;20225;-68
2022/04/15 09:54:01;;;;;;;1.20;1.20;;;18.10;59.10;;;;;;4916624;29;20292;-68
2022/04/15 09:56:29;;;;;;;3.08;1.90;;;18.00;59.50;;;;;;4916639;29;20641;-68
2022/04/15 09:59:01;;;;;;;1.15;1.10;;;17.90;60.70;;;;;;4916915;29;20211;-68
2022/04/15 10:01:33;;;;;;;1.50;1.50;;;17.90;62.10;;;;;;4916497;29;20235;-70
2022/04/15 10:04:00;;;;;;;1.20;1.20;;;17.80;62.30;;;;;;4916936;29;20213;-67
2022/04/15 10:06:27;;;;;;;1.95;1.85;;;17.70;63.10;;;;;;4917062;29;20298;-69
2022/04/15 10:08:55;;;;;;;2.38;2.10;;;17.60;66.10;;;;;;4917255;29;20205;-69
2022/04/15 10:11:24;;;;;;;2.15;2.00;;;17.50;67.60;;;;;;4920357;29;20224;-68
2022/04/15 10:13:52;;;;;;;2.60;2.40;;;17.40;70.40;;;;;;4920361;29;20197;-68
2022/04/15 10:16:19;;;;;;;2.17;2.05;;;17.30;73.50;;;;;;4920080;29;20300;-68
2022/04/15 10:18:49;;;;;;;2.15;2.05;;;17.30;74.50;;;;;;4920431;29;20201;-67
2022/04/15 10:21:16;;;;;;;1.60;1.60;;;17.30;75.60;;;;;;4920163;29;20229;-68
2022/04/15 10:23:43;;;;;;;1.55;1.55;;;17.30;75.20;;;;;;4920274;29;20243;-65
2022/04/15 10:26:11;;;;;;;2.10;1.98;;;17.30;76.00;;;;;;4920379;29;20295;-65
2022/04/15 10:28:40;;;;;;;1.52;1.42;;;17.30;72.90;;;;;;4920209;29;20209;-64
2022/04/15 10:31:08;;;;;;;1.25;1.25;;;17.50;71.00;;;;;;4920184;29;20286;-64
2022/04/15 10:33:36;;;;;;;1.42;1.42;;;17.60;67.30;;;;;;4920170;29;20201;-65
2022/04/15 10:36:12;;;;;;;1.30;1.30;;;17.70;66.50;;;;;;4920069;29;20215;-64
2022/04/15 10:39:12;;;;;;;1.00;1.00;;;17.70;66.30;;;;;;4920112;29;20193;-64
2022/04/15 10:41:51;;;;;;;1.00;1.00;;;17.70;63.80;;;;;;4920443;29;20315;-68
2022/04/15 10:44:26;;;;;;;0.90;0.90;;;17.80;64.20;;;;;;4920024;29;20209;-68
2022/04/15 10:46:53;;;;;;;1.02;1.02;;;18.00;58.90;;;;;;4919935;29;20185;-65
2022/04/15 10:49:23;;;;;;;2.08;1.83;;;18.10;55.40;;;;;;4919892;29;20215;-65
2022/04/15 10:51:52;;;;;;;1.38;1.23;;;18.20;52.50;;;;;;4919701;29;20252;-64
2022/04/15 10:54:41;;;;;;;2.30;2.00;;;18.20;54.60;;;;;;4919777;29;20534;-64
2022/04/15 10:57:11;;;;;;;1.98;1.30;;;18.20;50.60;;;;;;4919726;29;20190;-64
2022/04/15 11:02:25;;;;;;;1.75;1.70;;;18.60;50.30;;;;;;4919403;29;20308;-64
2022/04/15 11:04:53;;;;;;;1.67;1.67;;;18.50;50.70;;;;;;4919562;29;20205;-64
2022/04/15 11:07:29;;;;;;;1.48;1.38;;;18.50;48.20;;;;;;4919637;29;20292;-65
2022/04/15 11:09:58;;;;;;;2.22;2.13;;;18.50;50.70;;;;;;4919418;29;20560;-65
2022/04/15 11:12:42;;;;;;;2.00;1.83;;;18.60;48.70;;;;;;4919363;29;20225;-65
2022/04/15 11:15:10;;;;;;;1.85;1.50;;;18.60;47.60;;;;;;4919724;29;20197;-65
2022/04/15 11:17:39;;;;;;;2.33;1.52;;;18.50;51.20;;;;;;4919138;29;20194;-65
2022/04/15 11:20:08;;;;;;;1.83;1.73;;;18.60;50.60;;;;;;4919451;29;20213;-64
2022/04/15 11:22:40;;;;;;;2.80;1.70;;;18.80;48.30;;;;;;4918334;29;20550;-64
2022/04/15 11:25:09;;;;;;;1.00;1.00;;;18.80;49.20;;;;;;4919270;29;20189;-65
2022/04/15 11:27:38;;;;;;;0.82;0.82;;;18.80;51.30;;;;;;4919203;29;20205;-65
2022/04/15 11:30:11;;;;;;;1.63;1.45;;;18.90;47.40;;;;;;4919048;29;20303;-65
2022/04/15 11:32:46;;;;;;;1.63;1.20;;;18.70;48.20;;;;;;4919067;29;20195;-64
2022/04/15 11:35:26;;;;;;;1.27;1.17;;;18.80;49.30;;;;;;4919074;29;20193;-65
2022/04/15 11:37:57;;;;;;;1.52;1.42;;;18.90;48.20;;;;;;4919056;29;20192;-65
2022/04/15 11:40:27;;;;;;;2.20;2.03;;;18.80;48.80;;;;;;4918864;29;20189;-66
2022/04/15 11:42:57;;;;;;;4.43;1.85;;;18.80;50.00;;;;;;4918830;29;20261;-65
2022/04/15 11:45:35;;;;;;;1.88;1.80;;;18.60;51.00;;;;;;4918760;29;20641;-65
2022/04/15 11:48:16;;;;;;;1.95;1.85;;;18.60;53.50;;;;;;4918737;29;20228;-64
2022/04/15 11:50:43;;;;;;;3.88;2.15;;;18.70;53.00;;;;;;4918374;29;20712;-64
2022/04/15 11:53:13;;;;;;;2.20;1.90;;;18.90;48.70;;;;;;4918753;29;20185;-64
2022/04/15 11:55:51;;;;;;;2.58;2.30;;;18.90;50.20;;;;;;4918410;29;20584;-64
2022/04/15 11:58:18;;;;;;;2.17;2.00;;;18.90;49.90;;;;;;4918612;29;20192;-64
2022/04/15 12:00:51;;;;;;;1.90;1.80;;;18.80;51.80;;;;;;4918795;29;20327;-65
2022/04/15 12:03:18;;;;;;;1.40;1.30;;;19.00;52.70;;;;;;4918359;29;20213;-65
2022/04/15 12:05:45;;;;;;;1.35;1.35;;;19.10;53.50;;;;;;4918506;29;20205;-68
2022/04/15 12:08:15;;;;;;;1.95;1.85;;;19.30;51.70;;;;;;4918532;29;20312;-64
2022/04/15 12:10:43;;;;;;;2.42;1.85;;;19.30;50.30;;;;;;4918497;29;20235;-69
2022/04/15 12:13:10;;;;;;;2.00;1.52;;;19.40;47.40;;;;;;4918265;29;20200;-69
2022/04/15 12:15:37;;;;;;;1.83;1.73;;;19.30;48.90;;;;;;4918195;29;20291;-68
2022/04/15 12:18:05;;;;;;;1.60;1.40;;;19.40;48.50;;;;;;4918223;29;20251;-68
2022/04/15 12:20:33;;;;;;;1.70;1.70;;;19.50;47.90;;;;;;4917914;29;20595;-67
2022/04/15 12:23:00;;;;;;;2.38;2.17;;;19.50;47.40;;;;;;4918414;29;20209;-68
2022/04/15 14:19:24;;;;;;;1.20;1.20;;;18.70;35.80;;;;;;5044331;23;20239;-67
2022/04/15 14:21:50;;;;;;;1.05;1.05;;;18.70;35.80;;;;;;4940401;29;20206;-66
2022/04/15 14:24:17;;;;;;;2.05;0.98;;;18.60;36.10;;;;;;4940726;29;20310;-66
2022/04/15 14:26:44;;;;;;;1.25;1.15;;;18.60;35.30;;;;;;4939467;29;20204;-66
2022/04/15 14:29:11;;;;;;;1.02;1.02;;;18.60;35.40;;;;;;4923495;29;20256;-67
2022/04/15 14:31:38;;;;;;;2.15;1.40;;;18.60;35.30;;;;;;4920371;29;20630;-66
2022/04/15 14:34:05;;;;;;;1.60;1.30;;;18.60;35.90;;;;;;4952301;23;20235;-64
2022/04/15 14:36:33;;;;;;;1.70;1.30;;;18.40;36.10;;;;;;4939155;29;20742;-64
2022/04/15 14:39:00;;;;;;;1.55;1.45;;;18.40;36.90;;;;;;4939222;29;20272;-64
2022/04/15 14:41:27;;;;;;;1.58;1.38;;;18.40;37.40;;;;;;4939160;29;20204;-64
2022/04/15 14:43:54;;;;;;;1.77;1.20;;;18.40;36.00;;;;;;4930479;29;20297;-64
2022/04/15 14:46:21;;;;;;;4.85;1.73;;;18.30;35.90;;;;;;4920143;29;20205;-64
2022/04/15 14:48:51;;;;;;;1.10;1.00;;;18.30;36.80;;;;;;4920006;29;20193;-64
2022/04/15 14:51:18;;;;;;;3.63;1.45;;;18.40;37.40;;;;;;4919871;29;20296;-64
2022/04/15 14:53:46;;;;;;;1.45;1.30;;;18.40;36.00;;;;;;4919943;29;20313;-64
2022/04/15 14:56:13;;;;;;;1.67;1.38;;;18.40;36.60;;;;;;4919020;29;20280;-68
2022/04/15 14:58:40;;;;;;;1.10;1.02;;;18.50;36.40;;;;;;4920228;29;20256;-68
2022/04/15 15:01:09;;;;;;;1.38;1.38;;;18.70;35.90;;;;;;4920204;29;20185;-69
2022/04/15 15:03:37;;;;;;;1.33;1.33;;;18.70;34.80;;;;;;4919436;29;20244;-69
2022/04/15 15:06:04;;;;;;;0.80;0.80;;;18.70;33.90;;;;;;4920611;29;20236;-70
2022/04/15 15:08:31;;;;;;;2.50;1.13;;;18.80;34.50;;;;;;4919947;29;20759;-70
2022/04/15 15:11:02;;;;;;;1.00;1.00;;;18.80;35.40;;;;;;4919581;29;20691;-69
2022/04/15 15:13:29;;;;;;;1.00;1.00;;;18.90;34.00;;;;;;4919690;29;20312;-69
2022/04/15 15:15:56;;;;;;;0.88;0.88;;;18.90;33.40;;;;;;4919605;29;20308;-69
2022/04/15 15:18:22;;;;;;;1.10;1.10;;;19.00;34.00;;;;;;4919492;29;20664;-67
2022/04/15 15:20:49;;;;;;;1.20;1.20;;;19.00;34.60;;;;;;4919801;29;20296;-68
2022/04/15 15:23:16;;;;;;;1.20;1.10;;;19.00;34.80;;;;;;4919500;29;20315;-69
2022/04/15 15:31:13;;;;;;;1.58;1.20;;;18.90;32.60;;;;;;4920444;29;20189;-70
2022/04/15 15:33:41;;;;;;;1.20;1.20;;;18.90;33.10;;;;;;4919257;29;20319;-69
2022/04/15 15:36:11;;;;;;;1.17;1.13;;;18.90;33.80;;;;;;4919393;29;20287;-69
2022/04/15 15:38:38;;;;;;;1.15;1.15;;;18.90;34.70;;;;;;4919690;29;20193;-69
2022/04/15 15:41:05;;;;;;;2.03;1.17;;;19.00;34.40;;;;;;4919479;29;20280;-70
2022/04/15 15:43:34;;;;;;;1.38;1.23;;;19.00;35.40;;;;;;4919284;29;20221;-69
2022/04/15 15:46:00;;;;;;;1.10;1.10;;;19.00;35.30;;;;;;4919870;29;20301;-68
2022/04/15 15:48:27;;;;;;;2.30;1.27;;;19.00;35.40;;;;;;4919888;29;20243;-67
2022/04/15 15:50:54;;;;;;;1.20;1.13;;;19.00;36.40;;;;;;4919512;29;20215;-69
2022/04/15 15:53:21;;;;;;;1.50;1.40;;;19.10;36.50;;;;;;4919145;29;20229;-68
2022/04/15 15:55:48;;;;;;;1.30;1.10;;;19.10;36.50;;;;;;4919154;29;20216;-68
2022/04/15 15:58:16;;;;;;;2.25;1.52;;;19.10;37.10;;;;;;4918562;29;20209;-67
2022/04/15 16:00:44;;;;;;;1.40;1.30;;;19.00;37.50;;;;;;4918927;29;20236;-68
2022/04/15 16:03:12;;;;;;;1.00;1.00;;;18.90;37.70;;;;;;4918651;29;20225;-68
2022/04/15 16:05:39;;;;;;;1.10;1.10;;;18.90;38.10;;;;;;4918649;29;20229;-68
2022/04/15 16:08:07;;;;;;;1.15;1.10;;;18.90;38.20;;;;;;4918504;29;20213;-68
2022/04/15 16:10:34;;;;;;;0.85;0.82;;;18.80;37.80;;;;;;4918597;29;20321;-67
2022/04/15 16:13:01;;;;;;;1.10;1.10;;;18.80;37.50;;;;;;4918960;29;20291;-68
2022/04/15 16:15:28;;;;;;;1.88;1.25;;;18.70;37.50;;;;;;4918640;29;20204;-68
2022/04/15 16:17:57;;;;;;;1.52;1.42;;;18.60;38.60;;;;;;4918556;29;20228;-68
2022/04/15 16:20:24;;;;;;;1.13;1.13;;;18.60;39.90;;;;;;4918518;29;20307;-68
2022/04/15 16:22:52;;;;;;;1.17;1.17;;;18.50;40.80;;;;;;4918106;29;20683;-67
2022/04/15 16:25:20;;;;;;;1.38;1.27;;;18.40;41.40;;;;;;4918381;29;20260;-67
2022/04/15 16:27:47;;;;;;;2.15;1.67;;;18.40;40.90;;;;;;4918222;29;20612;-66
2022/04/15 16:30:15;;;;;;;1.58;1.58;;;18.30;42.20;;;;;;4918269;29;20215;-68
2022/04/15 16:32:42;;;;;;;1.42;1.42;;;18.10;42.10;;;;;;4917888;29;20568;-67
2022/04/15 16:35:10;;;;;;;1.75;1.63;;;18.00;43.20;;;;;;4918583;29;20229;-67
2022/04/15 16:37:37;;;;;;;1.60;1.48;;;18.00;42.90;;;;;;4918946;29;20295;-66
2022/04/15 16:40:05;;;;;;;1.60;1.50;;;17.90;44.10;;;;;;4918311;29;20657;-66
2022/04/15 16:42:32;;;;;;;1.50;1.40;;;17.80;44.80;;;;;;4917554;29;20211;-66
2022/04/15 16:44:58;;;;;;;1.48;1.38;;;17.70;45.10;;;;;;4917725;29;20316;-68
2022/04/15 16:47:25;;;;;;;1.38;1.38;;;17.60;45.20;;;;;;4917950;29;20291;-68
2022/04/15 16:49:52;;;;;;;1.95;1.85;;;17.50;45.50;;;;;;4917622;29;20621;-69
2022/04/15 16:52:21;;;;;;;1.58;1.58;;;17.40;47.30;;;;;;4917435;29;20215;-67
2022/04/15 17:00:17;;;;;;;1.83;1.73;;;17.20;51.10;;;;;;4917932;29;20184;-67
2022/04/15 17:02:44;;;;;;;3.22;1.80;;;17.20;52.10;;;;;;4917828;29;20263;-67
2022/04/15 17:05:11;;;;;;;2.15;2.00;;;17.20;53.00;;;;;;4917450;29;20315;-68
2022/04/15 17:07:39;;;;;;;2.65;2.38;;;17.10;53.10;;;;;;4917558;29;20200;-68
2022/04/15 17:10:07;;;;;;;1.90;1.80;;;16.90;54.20;;;;;;4917445;29;20238;-68
2022/04/15 17:12:34;;;;;;;2.05;1.77;;;16.90;55.00;;;;;;4917872;29;20209;-68
2022/04/15 17:15:01;;;;;;;2.20;2.10;;;16.80;55.30;;;;;;4917780;29;20225;-68
2022/04/15 17:17:28;;;;;;;1.75;1.65;;;16.80;56.20;;;;;;4917379;29;20295;-68
2022/04/15 17:19:55;;;;;;;2.38;2.10;;;16.70;56.40;;;;;;4916912;29;20240;-68
2022/04/15 17:22:24;;;;;;;2.28;2.05;;;16.60;56.70;;;;;;4917063;29;20205;-68
2022/04/15 17:24:52;;;;;;;1.60;1.60;;;16.50;57.70;;;;;;4917180;29;20229;-67
2022/04/15 17:27:19;;;;;;;1.80;1.80;;;16.40;58.40;;;;;;4917394;29;20281;-67
2022/04/15 17:29:46;;;;;;;1.65;1.65;;;16.30;59.30;;;;;;4916872;29;20292;-66
2022/04/15 17:32:13;;;;;;;2.00;1.90;;;16.20;59.30;;;;;;4917725;29;20201;-66
2022/04/15 17:34:40;;;;;;;2.10;1.95;;;16.10;59.80;;;;;;4917266;29;20233;-66
2022/04/15 17:37:07;;;;;;;2.25;2.15;;;16.00;59.90;;;;;;4917607;29;20247;-66
2022/04/15 17:39:35;;;;;;;2.20;2.00;;;15.90;60.30;;;;;;4918343;29;20213;-66
2022/04/15 17:42:03;;;;;;;1.90;1.70;;;15.80;62.70;;;;;;4918123;29;20669;-66
2022/04/15 17:44:31;;;;;;;1.48;1.48;;;15.70;63.20;;;;;;4917881;29;20221;-66
2022/04/15 17:46:58;;;;;;;1.80;1.70;;;15.60;64.20;;;;;;4919391;29;20228;-66
2022/04/15 17:49:25;;;;;;;2.13;1.60;;;15.50;65.90;;;;;;4921686;29;20238;-66
2022/04/15 17:51:52;;;;;;;1.50;1.50;;;15.50;68.20;;;;;;4921676;29;20202;-66
2022/04/15 17:54:19;;;;;;;1.88;1.77;;;15.50;68.90;;;;;;4921604;29;20229;-67
2022/04/15 17:56:47;;;;;;;1.65;1.55;;;15.40;69.80;;;;;;4921181;29;20252;-67
2022/04/15 17:59:15;;;;;;;1.65;1.55;;;15.30;71.10;;;;;;4921798;29;20209;-65
2022/04/15 18:01:42;;;;;;;2.00;1.80;;;15.30;72.40;;;;;;4919933;29;20201;-66
2022/04/15 18:04:10;;;;;;;2.33;2.20;;;15.20;73.60;;;;;;4917580;29;20316;-68
2022/04/15 18:06:39;;;;;;;2.30;2.00;;;15.10;75.30;;;;;;4917002;29;20221;-67
2022/04/15 18:09:06;;;;;;;2.30;2.10;;;15.00;76.70;;;;;;4916717;29;20205;-67
2022/04/15 18:11:33;;;;;;;2.53;1.90;;;14.90;78.20;;;;;;4916926;29;20300;-67
2022/04/15 18:14:00;;;;;;;1.75;1.65;;;14.80;80.70;;;;;;4916654;29;20750;-67
2022/04/15 18:16:29;;;;;;;1.70;1.63;;;14.70;83.30;;;;;;4916629;29;20696;-67
2022/04/15 18:18:56;;;;;;;1.73;1.63;;;14.70;85.20;;;;;;4916426;29;20692;-68
2022/04/15 18:21:23;;;;;;;1.70;1.60;;;14.60;88.40;;;;;;4916757;29;20257;-68
2022/04/15 18:23:50;;;;;;;1.42;1.40;;;14.50;89.40;;;;;;4917158;29;20320;-68
2022/04/15 18:26:17;;;;;;;1.45;1.40;;;14.40;90.60;;;;;;4917107;29;20239;-67
2022/04/15 18:28:43;;;;;;;1.50;1.48;;;14.30;90.90;;;;;;4917162;29;20296;-67
2022/04/15 18:31:13;;;;;;;1.55;1.40;;;14.20;91.40;;;;;;4919111;29;20230;-67
2022/04/15 18:33:41;;;;;;;1.10;1.10;;;14.10;92.00;;;;;;4920262;29;20675;-67
2022/04/15 18:36:08;;;;;;;1.33;1.23;;;14.00;92.70;;;;;;4920330;29;20201;-67
2022/04/15 18:38:35;;;;;;;1.10;1.10;;;14.00;93.20;;;;;;4920373;29;20243;-67
2022/04/15 18:41:02;;;;;;;1.85;1.73;;;13.90;94.30;;;;;;4920390;29;20209;-67
2022/04/15 18:43:29;;;;;;;1.00;1.00;;;13.80;94.80;;;;;;4920165;29;20235;-67
2022/04/15 18:45:57;;;;;;;1.20;1.20;;;13.80;95.60;;;;;;4920336;29;20320;-67
2022/04/15 18:53:54;;;;;;;1.10;1.10;;;13.50;98.60;;;;;;4920379;29;20301;-67
2022/04/15 18:56:20;;;;;;;1.30;1.30;;;13.50;99.90;;;;;;4920182;29;20208;-66
2022/04/15 18:58:48;;;;;;;1.88;1.77;;;13.40;99.90;;;;;;4920037;29;20287;-67
2022/04/15 19:01:16;;;;;;;2.35;2.25;;;13.40;99.90;;;;;;4920060;29;20300;-68
2022/04/15 19:03:43;;;;;;;1.98;1.88;;;13.40;99.90;;;;;;4919654;29;20589;-67
2022/04/15 19:06:14;;;;;;;1.70;1.70;;;13.30;99.90;;;;;;4919458;29;20221;-67
2022/04/15 19:08:41;;;;;;;1.40;1.40;;;13.30;99.90;;;;;;4919606;29;20200;-65
2022/04/15 19:11:08;;;;;;;1.17;1.17;;;13.20;99.90;;;;;;4919612;29;20292;-65
2022/04/15 19:13:35;;;;;;;1.33;1.33;;;13.20;99.90;;;;;;4919785;29;20233;-67
2022/04/15 19:16:02;;;;;;;1.20;1.20;;;13.10;99.90;;;;;;4919653;29;20273;-67
2022/04/15 19:18:29;;;;;;;0.98;0.98;;;13.10;99.90;;;;;;4919715;29;20300;-67
2022/04/15 19:20:56;;;;;;;1.10;1.10;;;13.00;99.90;;;;;;4919518;29;20205;-67
2022/04/15 19:23:25;;;;;;;0.90;0.90;;;12.90;99.90;;;;;;4919244;29;20570;-66
2022/04/15 19:25:52;;;;;;;0.90;0.90;;;12.80;99.90;;;;;;4919152;29;20221;-66
2022/04/15 19:28:19;;;;;;;1.30;1.30;;;12.70;99.90;;;;;;4919319;29;20296;-67
2022/04/15 19:30:46;;;;;;;1.17;1.00;;;12.60;99.90;;;;;;4919313;29;20301;-67
2022/04/15 19:33:14;;;;;;;1.10;1.05;;;12.50;99.90;;;;;;4919126;29;20767;-66
2022/04/15 19:35:41;;;;;;;0.90;0.90;;;12.50;99.90;;;;;;4920288;29;20181;-66
2022/04/15 19:38:08;;;;;;;0.98;0.98;;;12.40;99.90;;;;;;4919117;29;20201;-67
2022/04/15 19:40:37;;;;;;;1.10;1.05;;;12.30;99.90;;;;;;4919400;29;20219;-67
2022/04/15 19:43:05;;;;;;;0.90;0.90;;;12.20;99.90;;;;;;4919304;29;20717;-67
2022/04/15 19:45:33;;;;;;;1.00;1.00;;;12.10;99.90;;;;;;4919109;29;20225;-68
2022/04/15 19:48:01;;;;;;;0.80;0.80;;;12.00;99.90;;;;;;4919418;29;20190;-67
2022/04/15 19:50:28;;;;;;;0.98;0.98;;;11.90;99.90;;;;;;4919259;29;20216;-68
2022/04/15 19:52:56;;;;;;;0.80;0.80;;;11.80;99.90;;;;;;4918631;29;20673;-67
2022/04/15 19:55:23;;;;;;;0.88;0.88;;;11.70;99.90;;;;;;4919181;29;20261;-67
2022/04/15 20:03:34;;;;;;;0.98;0.98;;;11.50;99.90;;;;;;4908483;29;20209;-67
2022/04/15 20:06:04;;;;;;;0.98;0.90;;;11.40;99.90;;;;;;4918576;29;20231;-67
2022/04/15 20:08:31;;;;;;;1.10;1.10;;;11.40;99.90;;;;;;4918699;29;20216;-68
2022/04/15 20:10:58;;;;;;;0.70;0.70;;;11.30;99.90;;;;;;4918848;29;20205;-68
2022/04/15 20:13:28;;;;;;;1.00;1.00;;;11.10;99.90;;;;;;4918516;29;20222;-68
2022/04/15 20:15:55;;;;;;;0.75;0.75;;;11.20;99.90;;;;;;4918536;29;20657;-67
2022/04/15 20:18:21;;;;;;;0.75;0.75;;;11.10;99.90;;;;;;4918495;29;20208;-68
2022/04/15 20:20:50;;;;;;;0.60;0.60;;;11.00;99.90;;;;;;4918597;29;20216;-68
2022/04/15 20:23:17;;;;;;;0.63;0.63;;;11.00;99.90;;;;;;4918192;29;20728;-69
2022/04/15 20:25:44;;;;;;;0.80;0.80;;;10.90;99.90;;;;;;4918511;29;20225;-69
2022/04/15 20:28:13;;;;;;;0.65;0.65;;;10.90;99.90;;;;;;4918173;29;20673;-70
2022/04/15 20:30:41;;;;;;;0.70;0.70;;;10.90;99.90;;;;;;4918369;29;20227;-70
2022/04/15 20:33:08;;;;;;;0.73;0.73;;;10.80;99.90;;;;;;4918176;29;20568;-69
2022/04/15 20:35:35;;;;;;;0.77;0.77;;;10.70;99.90;;;;;;4918282;29;20277;-69
2022/04/15 20:38:03;;;;;;;0.70;0.70;;;10.60;99.90;;;;;;4918098;29;20241;-69
2022/04/15 20:40:30;;;;;;;0.85;0.85;;;10.60;99.90;;;;;;4918500;29;20201;-69
2022/04/15 20:42:57;;;;;;;0.60;0.60;;;10.50;99.90;;;;;;4918213;29;20209;-68
2022/04/15 20:45:24;;;;;;;1.05;0.90;;;10.50;99.90;;;;;;4918104;29;20272;-68
2022/04/15 20:47:53;;;;;;;0.90;0.90;;;10.40;99.90;;;;;;4917693;29;20632;-67
2022/04/15 20:50:19;;;;;;;0.77;0.77;;;10.30;99.90;;;;;;4917720;29;20206;-68
2022/04/15 20:52:46;;;;;;;0.55;0.55;;;10.30;99.90;;;;;;4918074;29;20205;-68
2022/04/15 20:55:13;;;;;;;0.70;0.70;;;10.20;99.90;;;;;;4917258;29;20232;-67
2022/04/15 20:57:43;;;;;;;0.70;0.70;;;10.10;99.90;;;;;;4918347;29;20630;-63
2022/04/15 21:00:13;;;;;;;0.80;0.80;;;10.10;99.90;;;;;;4918174;29;20212;-64